Time;durP1;ratioP1;P1;durP2;ratioP2;P2;SDS_P1;SDS_P2;PMS_P1;PMS_P2;Temp;Humidity;BMP_temperature;BMP_pressure;BME280_temperature;BME280_humidity;BME280_pressure;Samples;Min_cycle;Max_cycle;Signal;HPM_P1;HPM_P2
2023/01/09 00:00:20;;;;;;;20.40;11.60;;;;;;;-6.28;75.23;100760.94;105210;1264;67166;-84
2023/01/09 00:02:50;;;;;;;17.50;9.80;;;;;;;-6.26;74.97;100761.02;105218;1267;74866;-83
2023/01/09 00:05:18;;;;;;;20.50;11.70;;;;;;;-6.26;74.84;100762.05;105644;1262;60501;-84
2023/01/09 00:07:45;;;;;;;19.10;13.60;;;;;;;-6.25;74.85;100753.91;105997;1264;61318;-89
2023/01/09 00:10:14;;;;;;;16.40;9.20;;;;;;;-6.24;74.48;100756.33;105744;1261;73532;-81
2023/01/09 00:12:41;;;;;;;22.00;11.50;;;;;;;-6.25;74.35;100752.71;105493;1264;68282;-78
2023/01/09 00:15:08;;;;;;;25.50;11.00;;;;;;;-6.20;74.24;100750.23;105689;1263;74459;-83
2023/01/09 00:17:36;;;;;;;15.20;9.10;;;;;;;-6.18;74.13;100749.05;105985;1260;63025;-85
2023/01/09 00:20:05;;;;;;;14.00;8.30;;;;;;;-6.18;74.20;100754.21;105745;1260;60465;-87
2023/01/09 00:22:32;;;;;;;14.10;8.70;;;;;;;-6.16;73.80;100755.20;105675;1263;75681;-85
2023/01/09 00:24:59;;;;;;;17.80;9.00;;;;;;;-6.17;73.45;100756.31;105698;1260;68422;-82
2023/01/09 00:27:25;;;;;;;19.20;9.20;;;;;;;-6.17;73.67;100752.62;104998;1261;1002641;-84
2023/01/09 00:29:52;;;;;;;17.00;10.80;;;;;;;-6.14;73.48;100748.94;105936;1261;63068;-84
2023/01/09 00:32:21;;;;;;;15.10;9.90;;;;;;;-6.12;73.23;100754.67;106078;1263;60465;-87
2023/01/09 00:34:47;;;;;;;16.10;10.20;;;;;;;-6.11;73.23;100751.33;105721;1261;74465;-89
2023/01/09 00:37:16;;;;;;;10.90;7.00;;;;;;;-6.10;73.20;100748.77;105809;1260;68418;-80
2023/01/09 00:39:46;;;;;;;12.40;7.30;;;;;;;-6.08;72.53;100751.79;105502;1264;74435;-80
2023/01/09 00:42:22;;;;;;;15.20;8.50;;;;;;;-6.05;72.47;100739.83;105541;1260;63018;-88
2023/01/09 00:44:56;;;;;;;20.10;11.20;;;;;;;-6.03;72.81;100739.88;105663;1263;60353;-85
2023/01/09 00:47:33;;;;;;;13.50;7.70;;;;;;;-5.98;72.39;100733.91;106012;1264;73307;-88
2023/01/09 00:50:05;;;;;;;16.20;8.60;;;;;;;-5.97;72.02;100729.93;106460;1260;67949;-82
2023/01/09 00:52:34;;;;;;;20.00;11.60;;;;;;;-5.96;72.16;100725.16;105712;1264;71725;-82
2023/01/09 00:55:01;;;;;;;20.30;10.90;;;;;;;-5.91;72.07;100719.34;105558;1263;61621;-82
2023/01/09 00:57:39;;;;;;;19.10;10.40;;;;;;;-5.86;72.05;100719.63;105425;1266;62029;-84
2023/01/09 01:00:08;;;;;;;21.80;11.40;;;;;;;-5.85;71.11;100721.13;106055;1260;74768;-91
2023/01/09 01:02:35;;;;;;;10.50;6.60;;;;;;;-5.85;71.24;100713.10;107245;1260;69811;-89
2023/01/09 01:07:49;;;;;;;12.30;8.50;;;;;;;-5.88;70.25;100700.93;105578;1261;60866;-82
2023/01/09 01:10:19;;;;;;;14.80;9.10;;;;;;;-5.90;70.60;100700.38;105620;1261;61725;-82
2023/01/09 01:12:46;;;;;;;21.10;11.50;;;;;;;-5.87;70.54;100700.01;107356;1258;1002621;-77
2023/01/09 01:15:14;;;;;;;19.30;10.40;;;;;;;-5.87;70.44;100700.88;108882;1257;66523;-77
2023/01/09 01:17:41;;;;;;;13.70;7.70;;;;;;;-5.86;69.96;100700.83;108865;1259;72236;-77
2023/01/09 01:20:14;;;;;;;15.40;9.00;;;;;;;-5.86;69.61;100704.77;108095;1260;1002315;-79
2023/01/09 01:22:41;;;;;;;13.60;8.30;;;;;;;-5.82;69.94;100694.63;108886;1259;58189;-78
2023/01/09 01:25:08;;;;;;;18.00;9.00;;;;;;;-5.78;69.80;100687.34;108880;1260;72673;-75
2023/01/09 01:27:36;;;;;;;16.30;9.50;;;;;;;-5.76;69.63;100674.84;108897;1257;67173;-77
2023/01/09 01:30:06;;;;;;;18.10;9.50;;;;;;;-5.73;69.55;100675.29;108947;1257;70869;-74
2023/01/09 01:32:34;;;;;;;20.70;11.00;;;;;;;-5.68;69.52;100665.14;108186;1257;1002243;-73
2023/01/09 01:35:02;;;;;;;15.50;9.80;;;;;;;-5.62;68.89;100660.29;108910;1257;60252;-75
2023/01/09 01:37:29;;;;;;;13.70;7.20;;;;;;;-5.57;68.44;100653.52;108950;1258;71917;-71
2023/01/09 01:39:56;;;;;;;10.50;7.50;;;;;;;-5.61;67.92;100658.48;108982;1260;67858;-74
2023/01/09 01:42:23;;;;;;;23.40;9.60;;;;;;;-5.63;67.85;100645.33;109001;1260;73074;-80
2023/01/09 01:45:06;;;;;;;16.00;8.70;;;;;;;-5.61;68.11;100638.84;108928;1260;63614;-77
2023/01/09 01:47:37;;;;;;;18.00;11.30;;;;;;;-5.54;67.47;100637.59;108987;1259;61504;-78
2023/01/09 01:50:14;;;;;;;17.40;10.90;;;;;;;-5.48;66.87;100640.79;109017;1259;72623;-78
2023/01/09 01:52:43;;;;;;;18.80;9.60;;;;;;;-5.52;66.75;100639.34;108955;1259;66354;-79
2023/01/09 01:55:09;;;;;;;15.00;8.60;;;;;;;-5.54;66.56;100642.98;109013;1259;72630;-79
2023/01/09 01:57:36;;;;;;;12.10;8.20;;;;;;;-5.54;66.79;100639.20;108919;1259;60091;-78
2023/01/09 02:00:04;;;;;;;16.60;6.90;;;;;;;-5.52;67.01;100647.09;108989;1260;58877;-79
2023/01/09 02:02:31;;;;;;;12.50;8.00;;;;;;;-5.56;66.83;100643.85;108956;1259;71325;-80
2023/01/09 02:04:59;;;;;;;13.60;7.80;;;;;;;-5.55;66.95;100643.09;109027;1259;69336;-79
2023/01/09 02:07:25;;;;;;;7.20;6.50;;;;;;;-5.51;66.92;100643.15;108921;1260;72319;-79
2023/01/09 02:09:54;;;;;;;19.50;9.70;;;;;;;-5.49;66.86;100642.60;108969;1259;60115;-80
2023/01/09 02:12:23;;;;;;;15.10;8.10;;;;;;;-5.49;66.63;100637.71;108975;1258;58244;-80
2023/01/09 02:15:12;;;;;;;13.80;7.80;;;;;;;-5.47;66.45;100629.85;108960;1259;73538;-80
2023/01/09 02:18:10;;;;;;;11.70;7.60;;;;;;;-5.44;66.40;100636.79;109006;1259;66607;-80
2023/01/09 02:21:05;;;;;;;16.10;7.00;;;;;;;-5.39;66.43;100630.05;108984;1260;72756;-78
2023/01/09 02:24:04;;;;;;;19.30;9.80;;;;;;;-5.35;65.65;100628.04;108951;1260;61846;-85
2023/01/09 02:26:58;;;;;;;8.70;5.60;;;;;;;-5.39;65.19;100622.24;108858;1260;61669;-73
2023/01/09 02:29:25;;;;;;;11.50;7.40;;;;;;;-5.37;65.48;100615.05;109018;1259;73921;-78
2023/01/09 02:32:00;;;;;;;13.70;8.70;;;;;;;-5.37;65.07;100606.31;108988;1259;68516;-77
2023/01/09 02:34:35;;;;;;;13.80;7.00;;;;;;;-5.37;64.82;100611.56;109007;1260;72959;-76
2023/01/09 02:37:13;;;;;;;13.90;8.40;;;;;;;-5.39;64.46;100611.35;108934;1259;58963;-76
2023/01/09 02:39:48;;;;;;;13.50;7.10;;;;;;;-5.39;64.69;100604.25;108183;1259;1002803;-77
2023/01/09 02:42:21;;;;;;;16.50;9.70;;;;;;;-5.34;64.94;100598.21;108920;1261;71143;-78
2023/01/09 02:44:49;;;;;;;9.30;5.70;;;;;;;-5.25;64.95;100595.59;108992;1259;67242;-79
2023/01/09 02:47:22;;;;;;;12.30;7.90;;;;;;;-5.25;64.57;100585.07;108954;1259;71111;-77
2023/01/09 02:49:51;;;;;;;15.70;8.60;;;;;;;-5.32;64.24;100581.73;108905;1259;59980;-78
2023/01/09 02:52:51;;;;;;;13.10;8.00;;;;;;;-5.32;63.94;100582.65;108177;1260;1002429;-78
2023/01/09 02:55:44;;;;;;;16.80;9.40;;;;;;;-5.32;64.18;100576.02;108895;1260;72577;-75
2023/01/09 02:58:21;;;;;;;9.90;8.10;;;;;;;-5.29;64.17;100565.84;108936;1260;68894;-80
2023/01/09 03:00:57;;;;;;;12.60;8.00;;;;;;;-5.27;63.60;100568.45;108975;1261;70886;-79
2023/01/09 03:03:43;;;;;;;11.90;6.00;;;;;;;-5.25;63.94;100575.84;108956;1260;58474;-77
2023/01/09 03:06:35;;;;;;;12.30;7.90;;;;;;;-5.23;64.07;100573.36;108976;1259;58482;-76
2023/01/09 03:09:05;;;;;;;14.80;7.80;;;;;;;-5.31;63.97;100568.38;108825;1259;73209;-74
2023/01/09 03:11:41;;;;;;;11.80;7.20;;;;;;;-5.34;64.44;100571.80;108940;1259;66924;-79
2023/01/09 03:14:14;;;;;;;14.10;7.90;;;;;;;-5.36;65.53;100573.92;108820;1260;71959;-77
2023/01/09 03:16:41;;;;;;;12.60;7.70;;;;;;;-5.34;65.77;100573.01;108852;1259;61947;-74
2023/01/09 03:19:10;;;;;;;13.00;8.60;;;;;;;-5.28;66.38;100566.92;108974;1260;59155;-75
2023/01/09 03:21:37;;;;;;;15.50;9.90;;;;;;;-5.24;66.84;100567.31;108940;1259;75158;-79
2023/01/09 03:24:04;;;;;;;16.90;8.30;;;;;;;-5.21;66.88;100566.23;108855;1260;67548;-75
2023/01/09 03:26:31;;;;;;;10.40;7.00;;;;;;;-5.23;67.08;100559.55;108957;1260;72402;-76
2023/01/09 03:28:58;;;;;;;17.20;6.50;;;;;;;-5.27;67.81;100561.24;108894;1259;60467;-78
2023/01/09 03:31:25;;;;;;;12.10;7.30;;;;;;;-5.32;68.72;100562.23;108860;1259;61341;-76
2023/01/09 03:33:51;;;;;;;9.50;7.50;;;;;;;-5.33;69.19;100563.52;108975;1260;73156;-77
2023/01/09 03:36:19;;;;;;;11.30;6.60;;;;;;;-5.40;70.42;100562.55;109003;1260;68757;-77
2023/01/09 03:38:45;;;;;;;11.20;6.80;;;;;;;-5.42;70.90;100561.17;108964;1260;71406;-76
2023/01/09 03:41:12;;;;;;;11.90;6.50;;;;;;;-5.43;71.42;100559.45;108919;1260;59987;-77
2023/01/09 03:43:39;;;;;;;17.10;8.30;;;;;;;-5.45;72.40;100556.83;108943;1260;60379;-80
2023/01/09 03:46:07;;;;;;;17.40;8.10;;;;;;;-5.47;73.49;100553.21;108087;1260;1002783;-78
2023/01/09 03:48:34;;;;;;;9.60;6.70;;;;;;;-5.51;74.90;100553.15;108940;1260;67159;-77
2023/01/09 03:51:01;;;;;;;13.70;8.00;;;;;;;-5.54;75.29;100558.70;108939;1260;73346;-76
2023/01/09 03:53:28;;;;;;;13.30;9.20;;;;;;;-5.57;75.93;100549.82;108926;1260;61568;-79
2023/01/09 03:55:55;;;;;;;21.80;9.30;;;;;;;-5.55;76.09;100543.16;108187;1260;1002919;-76
2023/01/09 03:58:22;;;;;;;12.80;8.10;;;;;;;-5.50;76.59;100540.31;108922;1260;72658;-78
2023/01/09 04:00:49;;;;;;;11.90;9.50;;;;;;;-5.46;77.10;100538.73;108150;1260;1002353;-76
2023/01/09 04:03:18;;;;;;;12.40;7.50;;;;;;;-5.44;77.46;100538.95;108934;1260;70186;-77
2023/01/09 04:05:45;;;;;;;9.60;6.40;;;;;;;-5.44;78.14;100533.51;108901;1260;60084;-78
2023/01/09 04:08:12;;;;;;;14.20;9.00;;;;;;;-5.45;78.41;100537.06;108957;1261;58182;-77
2023/01/09 04:10:38;;;;;;;14.80;8.10;;;;;;;-5.48;79.03;100536.98;108943;1260;72939;-77
2023/01/09 04:13:25;;;;;;;11.20;8.20;;;;;;;-5.56;79.78;100536.59;108964;1260;68702;-75
2023/01/09 04:15:52;;;;;;;9.10;6.00;;;;;;;-5.62;81.09;100544.76;108925;1260;70177;-75
2023/01/09 04:18:18;;;;;;;16.00;8.70;;;;;;;-5.68;81.62;100543.95;108913;1260;59530;-75
2023/01/09 04:20:46;;;;;;;11.60;8.10;;;;;;;-5.69;82.25;100536.14;108914;1260;59061;-74
2023/01/09 04:23:13;;;;;;;18.10;10.00;;;;;;;-5.71;83.24;100532.10;108189;1260;1002988;-74
2023/01/09 04:25:40;;;;;;;16.60;9.80;;;;;;;-5.71;83.52;100527.16;108950;1260;65647;-76
2023/01/09 04:28:07;;;;;;;22.30;12.20;;;;;;;-5.67;84.46;100525.71;108918;1260;71659;-75
2023/01/09 04:30:35;;;;;;;19.80;10.20;;;;;;;-5.67;84.84;100524.11;108897;1260;61245;-75
2023/01/09 04:33:01;;;;;;;16.50;9.10;;;;;;;-5.62;84.47;100518.95;108906;1260;60238;-75
2023/01/09 04:35:30;;;;;;;16.40;8.60;;;;;;;-5.62;85.57;100520.04;108947;1260;72859;-75
2023/01/09 04:37:56;;;;;;;17.00;10.60;;;;;;;-5.67;85.83;100516.90;108943;1260;68019;-76
2023/01/09 04:40:23;;;;;;;20.00;10.30;;;;;;;-5.71;86.54;100514.64;108933;1260;71036;-78
2023/01/09 04:42:50;;;;;;;15.70;10.60;;;;;;;-5.78;87.74;100508.38;108769;1260;59607;-77
2023/01/09 04:45:17;;;;;;;11.10;7.80;;;;;;;-5.82;88.16;100499.67;108109;1260;1002310;-76
2023/01/09 04:47:45;;;;;;;15.40;9.40;;;;;;;-5.85;89.00;100500.45;108916;1260;72710;-78
2023/01/09 04:50:11;;;;;;;15.00;10.40;;;;;;;-5.82;88.80;100494.93;108923;1260;68907;-76
2023/01/09 04:52:38;;;;;;;18.90;11.30;;;;;;;-5.85;89.59;100496.70;108869;1260;72350;-77
2023/01/09 04:55:06;;;;;;;19.40;10.50;;;;;;;-5.83;89.46;100499.00;108910;1260;59356;-76
2023/01/09 04:57:36;;;;;;;18.00;10.60;;;;;;;-5.80;90.12;100502.62;108931;1260;61393;-78
2023/01/09 05:00:04;;;;;;;20.80;10.20;;;;;;;-5.80;90.35;100501.20;108899;1260;72491;-77
2023/01/09 05:02:31;;;;;;;12.20;7.40;;;;;;;-5.80;90.64;100495.98;108945;1260;65367;-78
2023/01/09 05:05:05;;;;;;;14.10;7.80;;;;;;;-5.81;91.09;100497.77;108172;1260;1003021;-76
2023/01/09 05:07:34;;;;;;;12.50;6.80;;;;;;;-5.85;91.28;100495.88;108949;1260;61165;-75
2023/01/09 05:10:02;;;;;;;19.20;10.20;;;;;;;-5.90;91.76;100498.98;108986;1260;58403;-77
2023/01/09 05:12:29;;;;;;;20.70;10.10;;;;;;;-5.92;92.12;100504.36;108147;1260;1002805;-77
2023/01/09 05:14:56;;;;;;;13.80;8.70;;;;;;;-5.90;92.26;100507.66;108966;1260;67987;-77
2023/01/09 05:17:23;;;;;;;14.00;8.00;;;;;;;-5.89;92.48;100503.02;108179;1260;1002205;-75
2023/01/09 05:19:50;;;;;;;18.10;9.90;;;;;;;-5.87;92.65;100502.66;108907;1260;61174;-77
2023/01/09 05:22:17;;;;;;;19.00;8.90;;;;;;;-5.83;92.62;100502.39;108939;1260;58516;-78
2023/01/09 05:24:45;;;;;;;16.50;9.60;;;;;;;-5.79;92.62;100507.73;108800;1260;75059;-77
2023/01/09 05:27:15;;;;;;;16.80;9.10;;;;;;;-5.78;92.63;100505.58;108936;1260;69033;-76
2023/01/09 05:29:48;;;;;;;16.90;8.30;;;;;;;-5.81;92.76;100503.80;108959;1260;73529;-77
2023/01/09 05:32:17;;;;;;;20.10;10.80;;;;;;;-5.86;93.47;100502.93;108927;1260;60785;-77
2023/01/09 05:34:45;;;;;;;15.70;9.70;;;;;;;-5.89;94.37;100503.60;108892;1260;61274;-77
2023/01/09 05:37:12;;;;;;;13.10;9.40;;;;;;;-5.86;94.35;100496.38;108765;1260;74939;-76
2023/01/09 05:39:41;;;;;;;12.40;7.30;;;;;;;-5.81;94.81;100499.41;108871;1261;67809;-77
2023/01/09 05:42:11;;;;;;;16.40;10.10;;;;;;;-5.80;94.18;100495.98;108834;1260;72703;-76
2023/01/09 05:44:38;;;;;;;17.20;10.20;;;;;;;-5.78;94.69;100484.59;108852;1260;62086;-78
2023/01/09 05:47:06;;;;;;;17.10;10.10;;;;;;;-5.75;95.08;100482.44;108891;1260;59260;-75
2023/01/09 05:49:33;;;;;;;19.00;13.70;;;;;;;-5.71;95.09;100482.65;108895;1261;72468;-77
2023/01/09 05:52:00;;;;;;;10.90;7.80;;;;;;;-5.65;94.70;100480.61;108912;1261;67692;-77
2023/01/09 05:54:28;;;;;;;14.70;11.00;;;;;;;-5.55;94.85;100476.66;108891;1260;71746;-77
2023/01/09 05:56:54;;;;;;;13.20;9.00;;;;;;;-5.51;94.65;100481.49;108892;1261;62244;-82
2023/01/09 05:59:22;;;;;;;16.60;8.90;;;;;;;-5.55;94.73;100482.86;108816;1264;59469;-77
2023/01/09 06:01:49;;;;;;;18.60;10.40;;;;;;;-5.55;94.75;100475.58;108931;1260;72617;-80
2023/01/09 06:04:16;;;;;;;12.80;9.20;;;;;;;-5.52;94.71;100480.17;108856;1260;65269;-80
2023/01/09 06:06:42;;;;;;;15.00;9.90;;;;;;;-5.51;94.79;100483.24;108764;1260;73330;-81
2023/01/09 06:09:10;;;;;;;16.60;8.20;;;;;;;-5.48;94.55;100484.05;108732;1261;61054;-78
2023/01/09 06:11:37;;;;;;;14.00;9.70;;;;;;;-5.44;94.39;100484.06;108853;1260;60556;-76
2023/01/09 06:14:06;;;;;;;20.10;10.40;;;;;;;-5.36;94.17;100486.02;108874;1260;74835;-76
2023/01/09 06:16:34;;;;;;;12.40;8.90;;;;;;;-5.33;93.84;100484.22;108908;1261;67806;-77
2023/01/09 06:19:01;;;;;;;16.20;8.70;;;;;;;-5.39;93.68;100476.64;108759;1264;71632;-80
2023/01/09 06:21:28;;;;;;;14.70;10.40;;;;;;;-5.45;93.11;100477.82;108790;1260;59636;-81
2023/01/09 06:23:55;;;;;;;18.20;9.00;;;;;;;-5.42;93.07;100477.27;107335;1260;1002983;-77
2023/01/09 06:26:23;;;;;;;13.80;9.80;;;;;;;-5.41;92.94;100481.93;108944;1260;72084;-82
2023/01/09 06:28:50;;;;;;;22.30;10.00;;;;;;;-5.43;93.41;100479.22;108966;1260;68643;-80
2023/01/09 06:31:18;;;;;;;17.60;10.30;;;;;;;-5.40;93.16;100479.85;108162;1260;1002707;-84
2023/01/09 06:33:48;;;;;;;18.00;10.70;;;;;;;-5.33;93.07;100476.27;108914;1261;61215;-82
2023/01/09 06:36:14;;;;;;;17.40;10.00;;;;;;;-5.29;93.15;100474.92;108857;1260;60225;-83
2023/01/09 06:38:44;;;;;;;16.30;10.10;;;;;;;-5.29;92.89;100468.66;108842;1261;72674;-81
2023/01/09 06:41:14;;;;;;;17.30;10.20;;;;;;;-5.26;93.01;100466.84;108893;1261;67800;-81
2023/01/09 06:43:41;;;;;;;20.40;11.70;;;;;;;-5.21;93.11;100469.55;108858;1261;73929;-78
2023/01/09 06:46:08;;;;;;;17.00;10.40;;;;;;;-5.18;93.13;100467.07;108818;1261;61955;-82
2023/01/09 06:48:36;;;;;;;22.20;11.80;;;;;;;-5.21;92.53;100468.83;108879;1261;59010;-83
2023/01/09 06:51:04;;;;;;;19.00;10.10;;;;;;;-5.18;92.60;100468.10;108775;1261;72358;-81
2023/01/09 06:53:37;;;;;;;19.70;10.10;;;;;;;-5.19;92.85;100458.34;108756;1261;69234;-78
2023/01/09 06:56:07;;;;;;;14.80;10.10;;;;;;;-5.15;92.81;100459.27;108772;1261;72706;-79
2023/01/09 06:58:35;;;;;;;18.00;9.40;;;;;;;-5.09;92.56;100463.41;108757;1261;60921;-77
2023/01/09 07:01:08;;;;;;;13.70;10.20;;;;;;;-5.09;92.39;100459.20;108843;1261;58579;-81
2023/01/09 07:03:38;;;;;;;18.70;10.80;;;;;;;-5.09;92.57;100455.59;108746;1261;72013;-77
2023/01/09 07:06:06;;;;;;;17.60;10.10;;;;;;;-5.06;92.67;100454.24;108871;1261;66888;-77
2023/01/09 07:08:34;;;;;;;17.50;9.50;;;;;;;-5.04;92.44;100449.92;108805;1261;71895;-80
2023/01/09 07:11:01;;;;;;;16.00;10.00;;;;;;;-5.02;92.45;100452.38;108853;1261;62022;-81
2023/01/09 07:13:32;;;;;;;24.30;13.80;;;;;;;-4.96;92.57;100450.09;108818;1261;58217;-81
2023/01/09 07:16:02;;;;;;;23.10;12.20;;;;;;;-4.96;92.48;100447.77;108780;1261;73387;-76
2023/01/09 07:18:30;;;;;;;12.30;10.30;;;;;;;-4.96;92.48;100441.52;108752;1261;67554;-79
2023/01/09 07:21:00;;;;;;;17.20;11.40;;;;;;;-4.97;92.64;100450.30;108731;1261;72610;-78
2023/01/09 07:23:30;;;;;;;18.60;11.40;;;;;;;-4.98;93.24;100446.91;108858;1261;61048;-79
2023/01/09 07:25:58;;;;;;;22.90;12.00;;;;;;;-4.98;93.15;100444.61;108827;1264;58393;-77
2023/01/09 07:28:28;;;;;;;28.60;14.00;;;;;;;-5.00;93.61;100441.36;108781;1261;73993;-78
2023/01/09 07:30:57;;;;;;;10.80;8.20;;;;;;;-5.01;93.61;100444.25;108849;1261;68776;-78
2023/01/09 07:33:27;;;;;;;20.10;11.90;;;;;;;-5.02;93.97;100446.73;108852;1261;71164;-79
2023/01/09 07:35:56;;;;;;;21.80;13.00;;;;;;;-5.00;94.12;100441.11;108852;1261;61175;-80
2023/01/09 07:38:25;;;;;;;13.90;10.70;;;;;;;-4.95;94.56;100444.88;108806;1261;59971;-81
2023/01/09 07:40:55;;;;;;;19.00;11.90;;;;;;;-4.92;94.48;100450.25;108796;1264;72571;-82
2023/01/09 07:43:33;;;;;;;26.80;16.80;;;;;;;-4.87;94.37;100449.31;108789;1262;68041;-80
2023/01/09 07:46:05;;;;;;;19.40;11.90;;;;;;;-4.81;94.54;100450.17;108788;1262;72775;-79
2023/01/09 07:48:34;;;;;;;17.30;11.30;;;;;;;-4.75;94.56;100455.63;108841;1261;59315;-80
2023/01/09 07:51:03;;;;;;;14.40;9.30;;;;;;;-4.78;94.38;100459.16;108781;1262;60156;-85
2023/01/09 07:53:37;;;;;;;18.50;10.90;;;;;;;-4.82;95.01;100455.30;108834;1263;73549;-83
2023/01/09 07:56:05;;;;;;;;;;;;;;;-4.78;94.86;100458.31;108761;1263;68724;-81
2023/01/09 07:58:34;;;;;;;14.60;9.20;;;;;;;-4.72;95.08;100455.70;108777;1264;72047;-84
2023/01/09 08:01:04;;;;;;;18.20;11.00;;;;;;;-4.72;94.99;100453.96;108822;1264;59081;-83
2023/01/09 08:03:34;;;;;;;14.90;9.30;;;;;;;-4.70;95.05;100447.62;108192;1263;682912;-81
2023/01/09 08:06:03;;;;;;;19.20;10.80;;;;;;;-4.68;95.48;100450.22;108772;1263;73314;-76
2023/01/09 08:08:33;;;;;;;14.40;11.20;;;;;;;-4.64;95.62;100438.35;108769;1262;68846;-78
2023/01/09 08:11:02;;;;;;;19.60;11.70;;;;;;;-4.60;95.86;100439.61;108809;1263;73612;-77
2023/01/09 08:13:38;;;;;;;15.40;10.50;;;;;;;-4.53;96.21;100429.13;108697;1264;58904;-77
2023/01/09 08:16:07;;;;;;;18.60;12.30;;;;;;;-4.57;96.45;100423.87;108820;1263;61433;-77
2023/01/09 08:18:36;;;;;;;16.50;10.60;;;;;;;-4.56;96.65;100432.19;108771;1261;75341;-85
2023/01/09 08:21:06;;;;;;;15.80;11.10;;;;;;;-4.53;96.87;100436.65;108770;1261;66658;-81
2023/01/09 08:23:37;;;;;;;20.30;10.20;;;;;;;-4.50;96.98;100434.98;108735;1261;71449;-82
2023/01/09 08:26:09;;;;;;;24.10;7.20;;;;;;;-4.51;97.47;100432.95;108764;1262;59960;-80
2023/01/09 08:28:42;;;;;;;16.50;10.20;;;;;;;-4.49;97.70;100428.96;108721;1262;60794;-80
2023/01/09 08:31:12;;;;;;;18.90;10.70;;;;;;;-4.42;97.99;100433.42;108706;1263;73758;-83
2023/01/09 08:33:43;;;;;;;15.20;10.40;;;;;;;-4.39;97.84;100433.82;108768;1262;67839;-83
2023/01/09 08:48:02;;;;;;;11.70;8.60;;;;;;;-4.31;98.42;100416.36;104887;1273;60455;-82
2023/01/09 08:50:29;;;;;;;14.90;10.40;;;;;;;-4.34;98.72;100412.96;104870;1275;73004;-80
2023/01/09 08:52:56;;;;;;;10.40;8.30;;;;;;;-4.35;98.78;100406.02;104837;1277;67233;-83
2023/01/09 08:55:23;;;;;;;15.10;8.30;;;;;;;-4.34;99.02;100397.70;104501;1267;570779;-79
2023/01/09 08:57:50;;;;;;;14.10;9.50;;;;;;;-4.35;98.90;100399.58;105098;1267;61093;-79
2023/01/09 09:00:19;;;;;;;10.30;7.30;;;;;;;-4.37;99.07;100393.24;104958;1267;61011;-79
2023/01/09 09:02:54;;;;;;;15.70;9.80;;;;;;;-4.39;99.19;100393.23;105410;1264;74741;-79
2023/01/09 09:05:21;;;;;;;12.30;9.10;;;;;;;-4.40;99.24;100390.15;105383;1267;70062;-80
2023/01/09 09:07:50;;;;;;;13.60;9.40;;;;;;;-4.40;99.15;100388.55;105084;1264;71884;-80
2023/01/09 09:10:17;;;;;;;12.20;9.70;;;;;;;-4.36;99.28;100385.10;105311;1263;61886;-78
2023/01/09 09:12:46;;;;;;;15.00;11.30;;;;;;;-4.32;99.18;100379.00;105348;1267;60557;-80
2023/01/09 09:15:22;;;;;;;17.00;10.30;;;;;;;-4.26;99.30;100372.84;105410;1269;75810;-79
2023/01/09 09:17:52;;;;;;;15.50;10.60;;;;;;;-4.22;99.31;100371.23;105395;1267;67421;-82
2023/01/09 09:20:32;;;;;;;17.50;10.90;;;;;;;-4.24;98.87;100375.23;105903;1257;72184;-79
2023/01/09 09:22:59;;;;;;;19.60;10.80;;;;;;;-4.24;99.05;100369.16;105714;1261;63364;-81
2023/01/09 09:25:27;;;;;;;17.60;9.40;;;;;;;-4.25;98.95;100367.27;105997;1253;60414;-77
2023/01/09 09:27:59;;;;;;;16.50;9.80;;;;;;;-4.22;99.10;100365.76;105021;1254;1003269;-74
2023/01/09 09:30:27;;;;;;;12.70;8.70;;;;;;;-4.15;99.12;100371.09;105602;1258;68254;-79
2023/01/09 09:32:54;;;;;;;21.60;12.70;;;;;;;-4.16;98.80;100369.95;105785;1259;72061;-77
2023/01/09 09:35:21;;;;;;;14.20;8.60;;;;;;;-4.17;98.85;100367.58;104867;1261;1003269;-80
2023/01/09 09:37:53;;;;;;;10.60;7.70;;;;;;;-4.14;98.83;100362.29;105609;1264;61430;-83
2023/01/09 09:40:43;;;;;;;12.80;9.50;;;;;;;-4.12;98.88;100363.26;105825;1259;75428;-84
2023/01/09 09:46:45;;;;;;;22.70;12.50;;;;;;;-4.02;99.15;100360.06;105720;1258;74081;-84
2023/01/09 09:49:25;;;;;;;15.20;11.00;;;;;;;-3.96;99.02;100357.77;105656;1260;59645;-82
2023/01/09 09:51:56;;;;;;;19.40;11.60;;;;;;;-3.95;98.74;100351.41;105728;1257;62183;-85
2023/01/09 09:54:34;;;;;;;16.80;11.10;;;;;;;-3.93;98.61;100349.14;105120;1257;1002864;-80
2023/01/09 09:57:02;;;;;;;19.50;10.90;;;;;;;-3.90;98.46;100349.23;105878;1259;69224;-83
2023/01/09 09:59:32;;;;;;;21.50;13.80;;;;;;;-3.90;98.61;100350.09;105919;1258;72954;-80
2023/01/09 10:02:08;;;;;;;17.20;10.30;;;;;;;-3.86;98.66;100341.99;105700;1254;61048;-80
2023/01/09 10:04:39;;;;;;;16.10;11.50;;;;;;;-3.82;98.89;100351.94;105921;1254;61768;-75
2023/01/09 10:07:13;;;;;;;16.50;10.90;;;;;;;-3.81;98.58;100347.11;105879;1254;74655;-76
2023/01/09 14:32:22;;;;;;;22.80;15.90;;;;;;;-2.86;100.00;100259.69;102444;1294;617717;-70
2023/01/09 14:34:56;;;;;;;26.30;15.20;;;;;;;-2.84;100.00;100256.98;104526;1270;62120;-70
2023/01/09 14:37:23;;;;;;;22.60;12.80;;;;;;;-2.78;100.00;100258.50;104828;1272;60952;-69
2023/01/09 14:39:49;;;;;;;16.40;11.10;;;;;;;-2.73;100.00;100254.61;104604;1270;72197;-68
2023/01/09 14:42:21;;;;;;;17.70;10.60;;;;;;;-2.68;100.00;100255.87;104261;1274;69858;-69
2023/01/09 14:44:54;;;;;;;16.80;8.80;;;;;;;-2.59;100.00;100254.36;104172;1269;611030;-67
2023/01/09 14:47:30;;;;;;;22.60;12.20;;;;;;;-2.52;100.00;100259.92;104609;1268;62128;-67
2023/01/09 14:50:07;;;;;;;16.20;11.00;;;;;;;-2.48;100.00;100259.75;104460;1269;60019;-67
2023/01/09 14:53:01;;;;;;;11.70;10.40;;;;;;;-2.42;100.00;100262.27;104508;1274;72579;-68
2023/01/09 14:55:53;;;;;;;11.60;8.30;;;;;;;-2.33;100.00;100272.81;104640;1271;68802;-67
2023/01/09 14:58:27;;;;;;;17.30;10.20;;;;;;;-2.35;100.00;100273.46;105006;1258;72902;-68
2023/01/09 15:01:01;;;;;;;19.10;10.30;;;;;;;-2.37;100.00;100277.59;104917;1258;61318;-69
2023/01/09 15:03:32;;;;;;;14.00;9.00;;;;;;;-2.36;100.00;100276.74;105224;1259;60265;-68
2023/01/09 15:05:59;;;;;;;13.70;10.30;;;;;;;-2.29;100.00;100279.76;105310;1258;71378;-68
2023/01/09 15:08:28;;;;;;;15.80;9.40;;;;;;;-2.25;100.00;100282.99;105375;1259;67556;-70
2023/01/09 15:10:55;;;;;;;14.00;10.20;;;;;;;-2.16;100.00;100277.72;105193;1259;73720;-69
2023/01/09 15:13:28;;;;;;;16.50;10.90;;;;;;;-2.12;100.00;100278.08;105479;1259;59910;-69
2023/01/09 15:15:55;;;;;;;19.00;11.10;;;;;;;-2.15;100.00;100278.41;105558;1259;60427;-69
2023/01/09 15:18:28;;;;;;;16.50;10.10;;;;;;;-2.14;100.00;100275.65;105203;1263;73791;-70
2023/01/09 15:21:00;;;;;;;14.00;10.70;;;;;;;-2.13;100.00;100278.36;105360;1259;68170;-68
2023/01/09 15:23:29;;;;;;;14.70;7.70;;;;;;;-2.08;100.00;100283.64;105102;1261;71989;-69
2023/01/09 15:26:03;;;;;;;14.30;9.70;;;;;;;-2.03;100.00;100281.37;105289;1260;61360;-67
2023/01/09 15:28:32;;;;;;;16.80;10.50;;;;;;;-2.00;100.00;100275.91;105391;1259;60730;-69
2023/01/09 15:31:10;;;;;;;15.50;10.10;;;;;;;-1.97;100.00;100273.54;105323;1261;73924;-69
2023/01/09 15:33:38;;;;;;;14.30;10.70;;;;;;;-1.92;100.00;100273.92;105077;1261;68081;-67
2023/01/09 15:36:10;;;;;;;22.10;9.40;;;;;;;-1.91;100.00;100271.19;105805;1259;73575;-70
2023/01/09 15:38:38;;;;;;;15.90;9.60;;;;;;;-1.93;100.00;100270.30;104935;1259;61249;-68
2023/01/09 15:41:08;;;;;;;16.70;9.80;;;;;;;-1.89;100.00;100270.75;105034;1258;61720;-68
2023/01/09 15:43:41;;;;;;;19.70;10.80;;;;;;;-1.88;100.00;100264.87;104875;1261;72963;-68
2023/01/09 15:46:10;;;;;;;13.40;9.30;;;;;;;-1.88;100.00;100263.31;105158;1259;68000;-67
2023/01/09 15:48:37;;;;;;;13.10;8.30;;;;;;;-1.86;100.00;100262.89;105044;1263;72498;-70
2023/01/09 15:51:16;;;;;;;11.00;8.20;;;;;;;-1.87;100.00;100260.25;105614;1259;61448;-67
2023/01/09 15:53:45;;;;;;;13.20;9.70;;;;;;;-1.89;100.00;100260.41;105140;1260;59934;-69
2023/01/09 15:56:12;;;;;;;10.70;8.20;;;;;;;-1.86;100.00;100264.17;105163;1259;73610;-71
2023/01/09 15:58:46;;;;;;;14.80;9.20;;;;;;;-1.82;100.00;100256.98;105471;1259;69794;-72